createdAt,value
2018-12-27T00:00:23.371Z,3.13
2018-12-27T00:02:55.003Z,2.80
2018-12-27T00:05:25.148Z,3.10
2018-12-27T00:07:55.102Z,2.73
2018-12-27T00:10:25.098Z,3.03
2018-12-27T00:12:55.118Z,3.13
2018-12-27T00:15:25.147Z,2.77
2018-12-27T00:17:55.106Z,3.23
2018-12-27T00:20:25.122Z,2.87
2018-12-27T00:22:55.195Z,3.10
2018-12-27T00:25:25.143Z,2.70
2018-12-27T00:27:55.110Z,3.07
2018-12-27T00:30:25.486Z,3.03
2018-12-27T00:33:02.959Z,2.97
2018-12-27T00:35:27.785Z,2.67
2018-12-27T00:37:58.154Z,2.73
2018-12-27T00:40:28.494Z,3.10
2018-12-27T00:42:59.996Z,2.90
2018-12-27T00:45:30.370Z,2.83
2018-12-27T00:48:00.659Z,2.70
2018-12-27T00:50:30.949Z,2.90
2018-12-27T00:53:01.251Z,2.60
2018-12-27T00:55:31.614Z,2.80
2018-12-27T00:58:01.909Z,2.60
2018-12-27T01:00:32.233Z,2.80
2018-12-27T01:03:10.849Z,2.80
2018-12-27T01:05:35.629Z,2.57
2018-12-27T01:08:05.917Z,2.60
2018-12-27T01:10:36.237Z,2.90
2018-12-27T01:13:06.569Z,2.53
2018-12-27T01:15:36.934Z,2.80
2018-12-27T01:18:07.351Z,2.80
2018-12-27T01:20:37.648Z,2.83
2018-12-27T01:23:07.958Z,2.60
2018-12-27T01:25:38.251Z,2.70
2018-12-27T01:28:08.542Z,2.60
2018-12-27T01:30:38.918Z,2.67
2018-12-27T01:33:09.206Z,2.60
2018-12-27T01:35:39.505Z,2.50
2018-12-27T01:38:09.844Z,2.60
2018-12-27T01:40:40.163Z,2.53
2018-12-27T01:43:10.462Z,2.70
2018-12-27T01:45:40.802Z,2.83
2018-12-27T01:48:11.118Z,2.40
2018-12-27T01:50:41.471Z,2.73
2018-12-27T01:53:11.876Z,2.20
2018-12-27T01:55:42.219Z,2.30
2018-12-27T01:58:12.588Z,2.60
2018-12-27T02:00:42.911Z,2.63
2018-12-27T02:03:13.217Z,2.97
2018-12-27T02:05:43.521Z,2.30
2018-12-27T02:08:13.857Z,2.43
2018-12-27T02:10:45.038Z,2.40
2018-12-27T02:13:15.337Z,2.70
2018-12-27T02:15:45.744Z,2.33
2018-12-27T02:18:16.125Z,2.70
2018-12-27T02:20:46.447Z,2.57
2018-12-27T02:23:16.767Z,2.50
2018-12-27T02:25:47.063Z,2.60
2018-12-27T02:28:17.431Z,2.37
2018-12-27T02:30:47.726Z,2.57
2018-12-27T02:33:18.021Z,2.67
2018-12-27T02:35:48.316Z,2.50
2018-12-27T02:38:18.611Z,2.43
2018-12-27T02:40:48.926Z,2.63
2018-12-27T02:43:19.270Z,2.43
2018-12-27T02:45:49.549Z,2.40
2018-12-27T02:48:19.848Z,2.60
2018-12-27T02:50:50.234Z,2.90
2018-12-27T02:53:20.535Z,2.63
2018-12-27T02:55:50.870Z,2.50
2018-12-27T02:58:21.172Z,2.40
2018-12-27T03:00:51.567Z,2.40
2018-12-27T03:03:21.904Z,2.30
2018-12-27T03:05:52.284Z,2.27
2018-12-27T03:08:22.574Z,2.50
2018-12-27T03:10:52.868Z,2.60
2018-12-27T03:13:23.159Z,2.40
2018-12-27T03:15:53.609Z,2.60
2018-12-27T03:18:23.990Z,2.53
2018-12-27T03:20:54.307Z,2.60
2018-12-27T03:23:24.720Z,2.30
2018-12-27T03:25:55.019Z,2.07
2018-12-27T03:28:25.416Z,2.60
2018-12-27T03:30:55.707Z,2.60
2018-12-27T03:33:26.006Z,2.60
2018-12-27T03:35:56.302Z,2.60
2018-12-27T03:38:26.603Z,2.60
2018-12-27T03:40:56.962Z,2.60
2018-12-27T03:43:27.257Z,2.70
2018-12-27T03:45:57.547Z,2.50
2018-12-27T03:48:27.838Z,2.60
2018-12-27T03:50:58.142Z,2.67
2018-12-27T03:53:28.446Z,2.53
2018-12-27T03:55:58.740Z,2.60
2018-12-27T03:58:29.042Z,2.60
2018-12-27T04:00:59.355Z,2.80
2018-12-27T04:03:29.709Z,2.57
2018-12-27T04:06:00.001Z,2.60
2018-12-27T04:08:30.289Z,2.67
2018-12-27T04:11:00.614Z,2.50
2018-12-27T04:13:30.902Z,2.50
2018-12-27T04:16:00.888Z,2.47
2018-12-27T04:18:30.829Z,2.43
2018-12-27T04:21:00.789Z,2.60
2018-12-27T04:23:30.834Z,2.33
2018-12-27T04:26:00.816Z,2.30
2018-12-27T04:28:30.794Z,2.53
2018-12-27T04:31:00.738Z,2.37
2018-12-27T04:33:30.741Z,2.50
2018-12-27T04:36:00.768Z,2.30
2018-12-27T04:38:30.803Z,2.40
2018-12-27T04:41:00.758Z,2.20
2018-12-27T04:43:30.703Z,2.57
2018-12-27T04:46:00.691Z,2.30
2018-12-27T04:48:30.638Z,2.40
2018-12-27T04:51:00.606Z,2.40
2018-12-27T04:53:30.557Z,2.20
2018-12-27T04:56:00.527Z,2.27
2018-12-27T04:58:30.515Z,2.43
2018-12-27T05:01:00.471Z,2.37
2018-12-27T05:03:30.431Z,2.40
2018-12-27T05:06:00.376Z,2.50
2018-12-27T05:08:30.339Z,2.50
2018-12-27T05:11:00.380Z,2.30
2018-12-27T05:13:30.476Z,2.50
2018-12-27T05:16:00.443Z,2.40
2018-12-27T05:18:30.405Z,2.30
2018-12-27T05:21:00.375Z,2.10
2018-12-27T05:23:30.333Z,2.30
2018-12-27T05:26:00.322Z,2.03
2018-12-27T05:28:30.280Z,2.37
2018-12-27T05:31:00.314Z,2.50
2018-12-27T05:33:30.287Z,2.00
2018-12-27T05:36:00.370Z,2.00
2018-12-27T05:38:30.317Z,2.30
2018-12-27T05:41:00.298Z,2.10
2018-12-27T05:43:30.285Z,2.30
2018-12-27T05:46:00.306Z,2.10
2018-12-27T05:48:30.256Z,2.13
2018-12-27T05:51:00.197Z,2.50
2018-12-27T05:53:30.149Z,2.40
2018-12-27T05:56:00.123Z,1.97
2018-12-27T05:58:30.143Z,2.50
2018-12-27T06:01:00.182Z,2.30
2018-12-27T06:03:30.185Z,2.20
2018-12-27T06:06:00.160Z,2.37
2018-12-27T06:08:30.109Z,2.70
2018-12-27T06:11:00.161Z,2.37
2018-12-27T06:13:30.145Z,2.50
2018-12-27T06:16:00.096Z,2.80
2018-12-27T06:18:30.074Z,2.10
2018-12-27T06:21:00.014Z,2.50
2018-12-27T06:23:29.983Z,2.50
2018-12-27T06:26:00.085Z,2.40
2018-12-27T06:28:30.021Z,2.67
2018-12-27T06:31:00.957Z,2.23
2018-12-27T06:33:30.910Z,2.53
2018-12-27T06:36:00.987Z,2.50
2018-12-27T06:38:30.926Z,2.47
2018-12-27T06:41:00.886Z,2.33
2018-12-27T06:43:30.847Z,2.37
2018-12-27T06:46:00.885Z,2.47
2018-12-27T06:48:30.937Z,5.47
2018-12-27T06:51:01.001Z,10.90
2018-12-27T06:53:30.969Z,14.70
2018-12-27T06:56:00.922Z,17.40
2018-12-27T06:58:37.551Z,16.53
2018-12-27T07:01:02.566Z,15.27
2018-12-27T07:03:32.531Z,13.90
2018-12-27T07:06:02.581Z,12.07
2018-12-27T07:08:32.628Z,12.70
2018-12-27T07:11:02.662Z,11.90
2018-12-27T07:13:32.638Z,12.40
2018-12-27T07:16:02.663Z,14.33
2018-12-27T07:18:32.629Z,13.77
2018-12-27T07:21:02.602Z,12.90
2018-12-27T07:23:32.600Z,13.87
2018-12-27T07:26:02.568Z,13.93
2018-12-27T07:28:32.547Z,13.03
2018-12-27T07:31:02.550Z,14.17
2018-12-27T07:33:32.631Z,14.60
2018-12-27T07:36:02.609Z,14.00
2018-12-27T07:38:32.663Z,13.27
2018-12-27T07:41:02.626Z,14.43
2018-12-27T07:43:32.583Z,14.40
2018-12-27T07:46:02.596Z,13.60
2018-12-27T07:48:32.556Z,15.10
2018-12-27T07:51:02.603Z,13.63
2018-12-27T07:53:32.581Z,13.47
2018-12-27T07:56:02.599Z,14.00
2018-12-27T07:58:32.633Z,13.20
2018-12-27T08:01:02.662Z,13.70
2018-12-27T08:03:32.714Z,13.27
2018-12-27T08:06:02.721Z,12.73
2018-12-27T08:08:32.802Z,12.90
2018-12-27T08:11:02.763Z,13.23
2018-12-27T08:13:32.765Z,13.13
2018-12-27T08:16:02.801Z,12.73
2018-12-27T08:18:32.767Z,12.37
2018-12-27T08:21:02.730Z,12.37
2018-12-27T08:23:32.691Z,11.90
2018-12-27T08:26:02.722Z,12.47
2018-12-27T08:28:32.743Z,11.87
2018-12-27T08:31:02.733Z,12.27
2018-12-27T08:33:32.693Z,11.07
2018-12-27T08:36:02.662Z,12.53
2018-12-27T08:38:32.615Z,10.87
2018-12-27T08:41:02.598Z,11.90
2018-12-27T08:43:32.594Z,11.30
2018-12-27T08:46:02.550Z,10.37
2018-12-27T08:48:32.534Z,11.20
2018-12-27T08:51:02.573Z,10.87
2018-12-27T08:53:32.601Z,11.10
2018-12-27T08:56:02.590Z,11.10
2018-12-27T08:58:32.565Z,10.33
2018-12-27T09:01:02.538Z,10.60
2018-12-27T09:03:32.521Z,10.07
2018-12-27T09:06:02.546Z,10.40
2018-12-27T09:08:32.529Z,10.07
2018-12-27T09:11:02.503Z,9.67
2018-12-27T09:13:32.466Z,10.27
2018-12-27T09:16:02.434Z,9.40
2018-12-27T09:18:32.390Z,9.60
2018-12-27T09:21:02.358Z,9.03
2018-12-27T09:23:32.387Z,8.97
2018-12-27T09:26:02.417Z,9.33
2018-12-27T09:28:32.473Z,8.83
2018-12-27T09:31:02.462Z,8.97
2018-12-27T09:33:32.419Z,8.77
2018-12-27T09:36:02.461Z,8.90
2018-12-27T09:38:32.430Z,9.30
2018-12-27T09:41:02.457Z,8.90
2018-12-27T09:43:32.450Z,8.40
2018-12-27T09:46:02.421Z,8.40
2018-12-27T09:48:32.373Z,8.50
2018-12-27T09:51:02.414Z,8.03
2018-12-27T09:53:32.369Z,7.70
2018-12-27T09:56:02.333Z,8.57
2018-12-27T09:58:32.400Z,7.80
2018-12-27T10:01:02.399Z,8.40
2018-12-27T10:03:32.425Z,7.50
2018-12-27T10:06:02.439Z,8.00
2018-12-27T10:08:32.468Z,7.60
2018-12-27T10:11:02.447Z,7.67
2018-12-27T10:13:32.432Z,7.53
2018-12-27T10:16:02.388Z,7.50
2018-12-27T10:18:32.342Z,6.97
2018-12-27T10:21:02.319Z,7.20
2018-12-27T10:23:34.173Z,7.17
2018-12-27T10:26:04.297Z,7.30
2018-12-27T10:28:34.303Z,7.23
2018-12-27T10:31:04.326Z,6.77
2018-12-27T10:33:34.354Z,7.17
2018-12-27T10:36:04.349Z,8.43
2018-12-27T10:38:34.410Z,12.27
2018-12-27T10:41:04.398Z,10.93
2018-12-27T10:43:34.371Z,10.70
2018-12-27T10:46:04.335Z,15.10
2018-12-27T10:48:34.439Z,14.30
2018-12-27T10:51:04.521Z,12.57
2018-12-27T10:53:34.594Z,12.90
2018-12-27T10:56:04.622Z,14.90
2018-12-27T10:58:34.622Z,14.13
2018-12-27T11:01:04.597Z,18.03
2018-12-27T11:03:34.567Z,14.60
2018-12-27T11:06:04.570Z,15.87
2018-12-27T11:08:34.790Z,16.77
2018-12-27T11:11:04.821Z,17.50
2018-12-27T11:13:34.803Z,17.03
2018-12-27T11:16:04.821Z,17.47
2018-12-27T11:18:34.902Z,17.10
2018-12-27T11:21:04.865Z,17.57
2018-12-27T11:23:34.836Z,17.40
2018-12-27T11:26:04.881Z,16.37
2018-12-27T11:28:34.969Z,16.30
2018-12-27T11:31:05.138Z,16.77
2018-12-27T11:33:35.105Z,17.20
2018-12-27T11:36:05.269Z,16.77
2018-12-27T11:38:35.283Z,16.67
2018-12-27T11:41:05.318Z,16.07
2018-12-27T11:43:35.509Z,15.80
2018-12-27T11:46:05.601Z,16.47
2018-12-27T11:48:35.566Z,15.10
2018-12-27T11:51:05.613Z,15.33
2018-12-27T11:53:35.586Z,14.87
2018-12-27T11:56:05.581Z,14.63
2018-12-27T11:58:35.570Z,13.47
2018-12-27T12:01:05.590Z,14.47
2018-12-27T12:03:35.555Z,13.47
2018-12-27T12:06:05.537Z,13.53
2018-12-27T12:08:35.494Z,13.23
2018-12-27T12:11:05.496Z,13.37
2018-12-27T12:13:35.494Z,13.30
2018-12-27T12:16:05.465Z,12.67
2018-12-27T12:18:35.519Z,12.60
2018-12-27T12:21:05.576Z,12.57
2018-12-27T12:23:35.598Z,11.93
2018-12-27T12:26:05.561Z,12.57
2018-12-27T12:28:35.537Z,11.17
2018-12-27T12:31:05.703Z,11.73
2018-12-27T12:33:35.763Z,12.00
2018-12-27T12:36:10.549Z,11.67
2018-12-27T12:38:37.593Z,11.67
2018-12-27T12:41:07.674Z,11.20
2018-12-27T12:43:37.734Z,11.17
2018-12-27T12:46:07.773Z,11.60
2018-12-27T12:48:37.738Z,11.10
2018-12-27T12:51:08.016Z,10.63
2018-12-27T12:53:38.016Z,11.17
2018-12-27T12:56:07.977Z,11.13
2018-12-27T12:58:38.100Z,10.80
2018-12-27T13:01:08.243Z,10.53
2018-12-27T13:03:38.361Z,10.10
2018-12-27T13:06:08.419Z,10.03
2018-12-27T13:08:39.455Z,11.50
2018-12-27T13:11:09.611Z,11.50
2018-12-27T13:13:39.619Z,11.17
2018-12-27T13:16:09.690Z,9.83
2018-12-27T13:18:39.796Z,10.47
2018-12-27T13:21:09.955Z,10.57
2018-12-27T13:23:39.953Z,9.80
2018-12-27T13:26:10.002Z,10.23
2018-12-27T13:28:40.433Z,9.80
2018-12-27T13:31:10.431Z,9.60
2018-12-27T13:33:40.435Z,9.90
2018-12-27T13:36:10.767Z,9.27
2018-12-27T13:38:40.896Z,10.43
2018-12-27T13:41:10.878Z,9.67
2018-12-27T13:43:40.882Z,9.17
2018-12-27T13:46:10.854Z,9.60
2018-12-27T13:48:40.806Z,9.33
2018-12-27T13:51:10.987Z,9.50
2018-12-27T13:53:40.985Z,9.00
2018-12-27T13:56:11.094Z,9.30
2018-12-27T13:58:41.370Z,8.87
2018-12-27T14:01:11.460Z,9.23
2018-12-27T14:03:41.607Z,9.37
2018-12-27T14:06:11.758Z,9.23
2018-12-27T14:08:41.838Z,8.70
2018-12-27T14:11:11.977Z,8.40
2018-12-27T14:13:42.055Z,8.70
2018-12-27T14:16:12.154Z,8.63
2018-12-27T14:18:42.203Z,8.27
2018-12-27T14:21:12.262Z,7.70
2018-12-27T14:23:42.274Z,8.37
2018-12-27T14:26:12.245Z,8.27
2018-12-27T14:28:42.238Z,8.50
2018-12-27T14:31:12.273Z,8.47
2018-12-27T14:33:42.363Z,8.47
2018-12-27T14:36:12.327Z,8.90
2018-12-27T14:38:42.300Z,8.60
2018-12-27T14:41:12.319Z,8.30
2018-12-27T14:43:42.286Z,8.30
2018-12-27T14:46:12.307Z,8.33
2018-12-27T14:48:42.254Z,7.40
2018-12-27T14:51:12.454Z,7.60
2018-12-27T14:53:42.500Z,7.70
2018-12-27T14:56:12.591Z,7.40
2018-12-27T14:58:42.746Z,7.93
2018-12-27T15:01:12.781Z,8.30
2018-12-27T15:03:43.078Z,8.10
2018-12-27T15:06:13.525Z,7.30
2018-12-27T15:08:43.882Z,8.20
2018-12-27T15:11:14.362Z,7.90
2018-12-27T15:13:45.228Z,7.53
2018-12-27T15:16:15.499Z,7.40
2018-12-27T15:18:45.737Z,7.27
2018-12-27T15:21:16.213Z,6.93
2018-12-27T15:23:46.500Z,7.00
2018-12-27T15:26:16.777Z,7.53
2018-12-27T15:28:47.092Z,7.50
2018-12-27T15:31:17.196Z,7.73
2018-12-27T15:33:47.238Z,6.83
2018-12-27T15:36:17.262Z,6.60
2018-12-27T15:38:47.323Z,7.13
2018-12-27T15:41:17.402Z,6.83
2018-12-27T15:43:47.752Z,7.00
2018-12-27T15:46:17.913Z,6.57
2018-12-27T15:48:47.995Z,6.40
2018-12-27T15:51:18.133Z,6.47
2018-12-27T15:53:48.228Z,6.40
2018-12-27T15:56:18.344Z,6.70
2018-12-27T15:58:48.494Z,6.83
2018-12-27T16:01:18.632Z,6.30
2018-12-27T16:03:48.758Z,6.83
2018-12-27T16:06:18.819Z,6.50
2018-12-27T16:08:48.939Z,6.10
2018-12-27T16:11:18.982Z,6.70
2018-12-27T16:13:49.097Z,6.40
2018-12-27T16:16:19.156Z,6.30
2018-12-27T16:18:49.226Z,5.97
2018-12-27T16:21:19.420Z,6.13
2018-12-27T16:23:49.574Z,6.13
2018-12-27T16:26:19.676Z,6.20
2018-12-27T16:28:49.736Z,6.27
2018-12-27T16:31:19.897Z,5.87
2018-12-27T16:33:50.142Z,5.80
2018-12-27T16:36:20.235Z,5.50
2018-12-27T16:38:50.318Z,5.43
2018-12-27T16:41:20.399Z,5.37
2018-12-27T16:43:50.500Z,5.80
2018-12-27T16:46:20.576Z,5.43
2018-12-27T16:48:50.734Z,5.67
2018-12-27T16:51:20.791Z,5.50
2018-12-27T16:53:50.920Z,5.93
2018-12-27T16:56:20.996Z,5.33
2018-12-27T16:58:51.203Z,5.27
2018-12-27T17:01:21.463Z,5.43
2018-12-27T17:03:51.642Z,5.00
2018-12-27T17:06:21.728Z,5.33
2018-12-27T17:08:51.814Z,5.37
2018-12-27T17:11:21.956Z,4.70
2018-12-27T17:13:52.024Z,5.00
2018-12-27T17:16:22.104Z,5.60
2018-12-27T17:18:52.284Z,5.20
2018-12-27T17:21:22.395Z,5.00
2018-12-27T17:23:52.467Z,5.10
2018-12-27T17:26:22.568Z,5.43
2018-12-27T17:28:52.636Z,5.30
2018-12-27T17:31:22.774Z,5.10
2018-12-27T17:33:52.966Z,5.30
2018-12-27T17:36:23.042Z,4.87
2018-12-27T17:38:53.143Z,4.80
2018-12-27T17:41:24.179Z,4.73
2018-12-27T17:43:54.625Z,4.90
2018-12-27T17:46:24.757Z,4.40
2018-12-27T17:48:54.864Z,4.73
2018-12-27T17:51:24.939Z,4.40
2018-12-27T17:53:55.010Z,4.70
2018-12-27T17:56:25.097Z,4.53
2018-12-27T17:58:55.244Z,4.83
2018-12-27T18:01:25.392Z,4.77
2018-12-27T18:03:55.490Z,4.70
2018-12-27T18:06:25.583Z,4.63
2018-12-27T18:08:55.667Z,4.47
2018-12-27T18:11:25.718Z,4.27
2018-12-27T18:13:56.116Z,4.73
2018-12-27T18:16:26.373Z,4.30
2018-12-27T18:18:56.550Z,4.50
2018-12-27T18:21:27.407Z,4.40
2018-12-27T18:23:57.730Z,4.23
2018-12-27T18:26:27.811Z,4.60
2018-12-27T18:28:58.064Z,4.70
2018-12-27T18:31:28.211Z,4.40
2018-12-27T18:33:58.336Z,4.57
2018-12-27T18:36:28.541Z,4.53
2018-12-27T18:38:58.662Z,4.33
2018-12-27T18:41:28.724Z,4.70
2018-12-27T18:43:58.833Z,4.40
2018-12-27T18:46:35.220Z,4.43
2018-12-27T18:49:05.883Z,4.20
2018-12-27T18:51:37.160Z,4.20
2018-12-27T18:54:07.564Z,4.37
2018-12-27T18:56:39.325Z,4.20
2018-12-27T18:59:22.500Z,4.13
2018-12-27T19:01:54.014Z,4.10
2018-12-27T19:04:24.372Z,4.30
2018-12-27T19:06:54.480Z,4.10
2018-12-27T19:09:24.551Z,4.23
2018-12-27T19:12:31.633Z,4.10
2018-12-27T19:15:05.645Z,4.10
2018-12-27T19:17:44.934Z,4.50
2018-12-27T19:20:15.218Z,4.10
2018-12-27T19:23:16.980Z,4.17
2018-12-27T19:25:47.141Z,4.30
2018-12-27T19:28:17.345Z,4.10
2018-12-27T19:30:47.635Z,4.30
2018-12-27T19:33:17.952Z,3.93
2018-12-27T19:35:48.245Z,4.33
2018-12-27T19:38:19.711Z,4.40
2018-12-27T19:40:49.830Z,3.97
2018-12-27T19:43:19.910Z,4.10
2018-12-27T19:45:50.049Z,4.23
2018-12-27T19:48:20.128Z,4.10
2018-12-27T19:50:50.246Z,4.00
2018-12-27T19:53:20.291Z,4.00
2018-12-27T19:55:50.460Z,4.10
2018-12-27T19:58:20.627Z,4.50
2018-12-27T20:00:50.915Z,4.17
2018-12-27T20:03:21.096Z,4.23
2018-12-27T20:05:53.088Z,4.03
2018-12-27T20:08:23.430Z,4.20
2018-12-27T20:10:53.846Z,4.00
2018-12-27T20:13:23.974Z,4.13
2018-12-27T20:15:54.095Z,4.10
2018-12-27T20:18:24.218Z,4.23
2018-12-27T20:20:54.178Z,4.20
2018-12-27T20:23:24.162Z,4.50
2018-12-27T20:25:55.451Z,4.20
2018-12-27T20:28:25.494Z,3.83
2018-12-27T20:30:55.480Z,3.90
2018-12-27T20:33:25.443Z,4.10
2018-12-27T20:35:55.514Z,4.30
2018-12-27T20:38:25.482Z,3.63
2018-12-27T20:40:55.451Z,3.90
2018-12-27T20:43:29.069Z,4.30
2018-12-27T20:45:59.204Z,4.00
2018-12-27T20:48:29.195Z,3.70
2018-12-27T20:50:59.434Z,3.80
2018-12-27T20:53:29.685Z,3.70
2018-12-27T20:55:59.743Z,3.80
2018-12-27T20:58:29.813Z,4.00
2018-12-27T21:00:59.817Z,3.70
2018-12-27T21:03:29.790Z,4.17
2018-12-27T21:05:59.843Z,3.50
2018-12-27T21:08:29.821Z,4.00
2018-12-27T21:10:59.795Z,4.00
2018-12-27T21:13:29.754Z,4.30
2018-12-27T21:15:59.819Z,3.67
2018-12-27T21:18:29.891Z,3.63
2018-12-27T21:20:59.836Z,3.63
2018-12-27T21:23:29.833Z,3.80
2018-12-27T21:25:59.855Z,3.80
2018-12-27T21:28:29.891Z,3.50
2018-12-27T21:30:59.882Z,3.63
2018-12-27T21:33:29.931Z,3.80
2018-12-27T21:35:59.990Z,3.70
2018-12-27T21:38:30.105Z,3.67
2018-12-27T21:41:00.090Z,4.07
2018-12-27T21:43:30.138Z,3.90
2018-12-27T21:46:00.216Z,3.90
2018-12-27T21:48:30.241Z,3.27
2018-12-27T21:51:00.217Z,3.93
2018-12-27T21:53:30.302Z,3.60
2018-12-27T21:56:00.359Z,3.70
2018-12-27T21:58:30.370Z,3.80
2018-12-27T22:01:00.764Z,3.87
2018-12-27T22:03:30.846Z,3.30
2018-12-27T22:06:00.832Z,3.50
2018-12-27T22:08:30.860Z,3.60
2018-12-27T22:11:00.802Z,3.33
2018-12-27T22:13:30.846Z,3.47
2018-12-27T22:16:00.798Z,3.70
2018-12-27T22:18:30.793Z,3.30
2018-12-27T22:21:00.738Z,3.40
2018-12-27T22:23:30.690Z,3.87
2018-12-27T22:26:00.652Z,3.37
2018-12-27T22:28:30.737Z,3.10
2018-12-27T22:31:00.764Z,3.40
2018-12-27T22:33:30.778Z,3.47
2018-12-27T22:36:00.751Z,3.13
2018-12-27T22:38:35.541Z,3.40
2018-12-27T22:41:02.430Z,3.07
2018-12-27T22:43:32.395Z,3.40
2018-12-27T22:46:02.430Z,3.40
2018-12-27T22:48:32.540Z,3.30
2018-12-27T22:51:02.496Z,3.13
2018-12-27T22:53:32.480Z,3.47
2018-12-27T22:56:02.592Z,3.37
2018-12-27T22:58:32.545Z,3.43
2018-12-27T23:01:02.582Z,3.13
2018-12-27T23:03:32.606Z,3.27
2018-12-27T23:06:02.581Z,3.10
2018-12-27T23:08:32.615Z,3.40
2018-12-27T23:11:02.579Z,3.37
2018-12-27T23:13:32.675Z,3.30
2018-12-27T23:16:02.673Z,3.20
2018-12-27T23:18:32.641Z,3.30
2018-12-27T23:21:02.593Z,3.30
2018-12-27T23:23:32.549Z,3.07
2018-12-27T23:26:02.527Z,3.40
2018-12-27T23:28:32.546Z,3.20
2018-12-27T23:31:02.818Z,3.27
2018-12-27T23:33:32.770Z,3.37
2018-12-27T23:36:02.773Z,3.17
2018-12-27T23:38:32.773Z,3.10
2018-12-27T23:41:02.735Z,3.37
2018-12-27T23:43:32.719Z,3.40
2018-12-27T23:46:02.674Z,3.20
2018-12-27T23:48:32.639Z,3.40
2018-12-27T23:51:02.658Z,3.10
2018-12-27T23:53:32.618Z,2.83
2018-12-27T23:56:02.573Z,3.03
2018-12-27T23:58:32.574Z,3.23
